createdAt,value
2018-07-14T00:01:49.445Z,8.37
2018-07-14T00:04:17.814Z,8.43
2018-07-14T00:06:46.248Z,7.93
2018-07-14T00:09:14.586Z,8.10
2018-07-14T00:11:43.136Z,7.97
2018-07-14T00:14:11.491Z,8.30
2018-07-14T00:16:40.000Z,8.37
2018-07-14T00:19:08.306Z,8.20
2018-07-14T00:21:36.684Z,7.87
2018-07-14T00:24:05.820Z,7.43
2018-07-14T00:26:34.180Z,8.23
2018-07-14T00:29:02.536Z,7.83
2018-07-14T00:31:30.862Z,7.33
2018-07-14T00:33:59.210Z,7.77
2018-07-14T00:36:27.549Z,8.23
2018-07-14T00:38:55.892Z,7.90
2018-07-14T00:41:24.342Z,7.40
2018-07-14T00:43:52.752Z,7.97
2018-07-14T00:46:21.098Z,7.83
2018-07-14T00:48:49.433Z,7.93
2018-07-14T00:51:17.858Z,7.73
2018-07-14T00:53:46.200Z,8.17
2018-07-14T00:56:14.848Z,8.67
2018-07-14T00:58:43.161Z,7.43
2018-07-14T01:01:11.477Z,8.80
2018-07-14T01:03:39.819Z,8.03
2018-07-14T01:06:08.149Z,8.70
2018-07-14T01:08:36.495Z,8.33
2018-07-14T01:11:05.591Z,8.57
2018-07-14T01:13:34.719Z,8.73
2018-07-14T01:16:03.039Z,8.80
2018-07-14T01:18:31.494Z,8.43
2018-07-14T01:20:59.817Z,9.57
2018-07-14T01:23:28.914Z,9.83
2018-07-14T01:25:58.021Z,10.30
2018-07-14T01:28:26.359Z,9.63
2018-07-14T01:30:54.881Z,9.57
2018-07-14T01:33:23.989Z,9.23
2018-07-14T01:35:52.303Z,9.00
2018-07-14T01:38:20.761Z,10.13
2018-07-14T01:40:49.127Z,9.90
2018-07-14T01:43:17.589Z,9.13
2018-07-14T01:45:46.689Z,10.43
2018-07-14T01:48:15.082Z,10.17
2018-07-14T01:50:43.419Z,10.57
2018-07-14T01:53:11.755Z,10.87
2018-07-14T01:55:40.190Z,9.87
2018-07-14T01:58:08.667Z,9.27
2018-07-14T02:00:37.085Z,9.00
2018-07-14T02:03:06.181Z,10.10
2018-07-14T02:05:34.565Z,9.03
2018-07-14T02:08:02.901Z,10.97
2018-07-14T02:10:31.321Z,10.40
2018-07-14T02:12:59.679Z,10.47
2018-07-14T02:15:28.799Z,10.47
2018-07-14T02:17:57.276Z,10.00
2018-07-14T02:20:25.609Z,9.60
2018-07-14T02:22:53.987Z,9.97
2018-07-14T02:25:22.431Z,10.47
2018-07-14T02:27:50.777Z,9.47
2018-07-14T02:30:19.892Z,10.57
2018-07-14T02:32:48.215Z,9.90
2018-07-14T02:35:16.567Z,10.67
2018-07-14T02:37:44.941Z,10.47
2018-07-14T02:40:13.303Z,12.73
2018-07-14T02:42:41.657Z,11.37
2018-07-14T02:45:09.974Z,11.10
2018-07-14T02:47:38.334Z,11.43
2018-07-14T02:50:06.678Z,12.53
2018-07-14T02:52:35.051Z,11.30
2018-07-14T02:55:03.497Z,10.50
2018-07-14T02:57:31.889Z,12.20
2018-07-14T03:00:00.239Z,11.37
2018-07-14T03:02:29.442Z,10.87
2018-07-14T03:04:57.777Z,11.23
2018-07-14T03:07:26.114Z,10.23
2018-07-14T03:09:54.463Z,10.17
2018-07-14T03:12:22.936Z,10.90
2018-07-14T03:14:51.285Z,11.00
2018-07-14T03:17:19.634Z,11.30
2018-07-14T03:19:47.970Z,10.87
2018-07-14T03:22:17.186Z,11.53
2018-07-14T03:24:45.600Z,9.77
2018-07-14T03:27:14.094Z,12.07
2018-07-14T03:29:42.431Z,12.47
2018-07-14T03:32:10.812Z,11.97
2018-07-14T03:34:39.183Z,9.87
2018-07-14T03:37:07.520Z,11.70
2018-07-14T03:39:35.884Z,10.40
2018-07-14T03:42:04.303Z,12.07
2018-07-14T03:44:32.607Z,12.00
2018-07-14T03:47:00.942Z,12.07
2018-07-14T03:49:29.287Z,11.83
2018-07-14T03:51:57.880Z,11.00
2018-07-14T03:54:26.188Z,11.40
2018-07-14T03:56:54.641Z,11.67
2018-07-14T03:59:22.942Z,11.13
2018-07-14T04:01:51.360Z,10.80
2018-07-14T04:04:20.694Z,10.57
2018-07-14T04:06:49.062Z,11.10
2018-07-14T04:09:17.764Z,11.50
2018-07-14T04:11:46.089Z,10.77
2018-07-14T04:14:15.214Z,11.77
2018-07-14T04:16:43.583Z,12.43
2018-07-14T04:19:12.084Z,11.93
2018-07-14T04:21:40.398Z,11.50
2018-07-14T04:24:08.809Z,12.27
2018-07-14T04:26:37.168Z,12.60
2018-07-14T04:29:06.325Z,12.53
2018-07-14T04:31:35.159Z,10.53
2018-07-14T04:34:04.300Z,11.50
2018-07-14T04:36:32.632Z,11.50
2018-07-14T04:39:01.828Z,10.90
2018-07-14T04:41:30.168Z,12.17
2018-07-14T04:43:58.526Z,12.63
2018-07-14T04:46:26.860Z,11.83
2018-07-14T04:48:55.194Z,12.60
2018-07-14T04:51:23.560Z,12.37
2018-07-14T04:53:51.899Z,11.30
2018-07-14T04:56:20.260Z,11.80
2018-07-14T04:58:48.598Z,12.20
2018-07-14T05:01:16.932Z,11.33
2018-07-14T05:03:45.280Z,11.93
2018-07-14T05:06:14.327Z,11.40
2018-07-14T05:08:43.441Z,10.90
2018-07-14T05:11:11.780Z,11.50
2018-07-14T05:13:40.196Z,10.40
2018-07-14T05:16:08.792Z,10.83
2018-07-14T05:18:37.162Z,10.80
2018-07-14T05:21:05.523Z,9.20
2018-07-14T05:23:34.613Z,10.30
2018-07-14T05:26:03.857Z,8.67
2018-07-14T05:28:32.231Z,9.10
2018-07-14T05:31:00.668Z,9.57
2018-07-14T05:33:29.767Z,9.50
2018-07-14T05:35:58.179Z,9.47
2018-07-14T05:38:26.561Z,8.27
2018-07-14T05:40:55.016Z,8.33
2018-07-14T05:43:24.237Z,8.27
2018-07-14T05:45:52.581Z,8.60
2018-07-14T05:48:20.951Z,9.00
2018-07-14T05:50:49.382Z,8.73
2018-07-14T05:53:17.726Z,8.90
2018-07-14T05:55:46.920Z,8.27
2018-07-14T05:58:16.154Z,8.00
2018-07-14T06:00:44.489Z,5.97
2018-07-14T06:03:12.856Z,5.57
2018-07-14T06:05:41.767Z,4.87
2018-07-14T06:08:10.885Z,4.80
2018-07-14T06:10:39.262Z,6.03
2018-07-14T06:13:07.671Z,5.03
2018-07-14T06:15:36.029Z,7.40
2018-07-14T06:18:04.355Z,7.73
2018-07-14T06:20:32.846Z,5.30
2018-07-14T06:23:01.273Z,5.07
2018-07-14T06:25:29.687Z,5.10
2018-07-14T06:27:58.132Z,4.93
2018-07-14T06:30:26.527Z,5.20
2018-07-14T06:32:54.858Z,7.20
2018-07-14T06:35:23.181Z,5.33
2018-07-14T06:37:51.521Z,4.97
2018-07-14T06:40:20.610Z,5.80
2018-07-14T06:42:48.940Z,5.73
2018-07-14T06:45:17.295Z,5.90
2018-07-14T06:47:45.637Z,5.50
2018-07-14T06:50:14.070Z,6.00
2018-07-14T06:52:42.485Z,5.97
2018-07-14T06:55:10.814Z,5.23
2018-07-14T06:57:39.161Z,6.10
2018-07-14T07:00:07.672Z,5.23
2018-07-14T07:02:37.279Z,4.53
2018-07-14T07:05:06.409Z,7.07
2018-07-14T07:07:34.865Z,5.87
2018-07-14T07:10:03.205Z,4.10
2018-07-14T07:12:31.561Z,4.23
2018-07-14T07:14:59.920Z,3.73
2018-07-14T07:17:28.265Z,4.20
2018-07-14T07:19:57.365Z,4.30
2018-07-14T07:22:25.716Z,3.23
2018-07-14T07:24:54.050Z,3.40
2018-07-14T07:27:22.390Z,3.80
2018-07-14T07:29:50.726Z,4.50
2018-07-14T07:32:19.083Z,3.80
2018-07-14T07:34:47.430Z,3.77
2018-07-14T07:37:16.558Z,3.57
2018-07-14T07:39:44.963Z,3.67
2018-07-14T07:42:13.526Z,3.20
2018-07-14T07:44:46.269Z,3.20
2018-07-14T07:47:15.385Z,3.70
2018-07-14T07:49:43.880Z,3.53
2018-07-14T07:52:12.220Z,3.70
2018-07-14T07:54:40.583Z,4.50
2018-07-14T07:57:08.908Z,3.70
2018-07-14T07:59:37.276Z,3.40
2018-07-14T08:02:06.372Z,3.20
2018-07-14T08:04:34.704Z,3.47
2018-07-14T08:07:03.029Z,3.57
2018-07-14T08:09:31.401Z,3.37
2018-07-14T08:11:59.744Z,3.23
2018-07-14T08:14:28.104Z,3.77
2018-07-14T08:16:56.429Z,3.30
2018-07-14T08:19:25.571Z,3.40
2018-07-14T08:21:53.954Z,4.03
2018-07-14T08:24:22.283Z,4.00
2018-07-14T08:26:51.391Z,7.40
2018-07-14T08:29:19.726Z,4.83
2018-07-14T08:31:48.096Z,4.40
2018-07-14T08:34:16.420Z,3.50
2018-07-14T08:36:45.657Z,4.00
2018-07-14T08:39:14.026Z,3.70
2018-07-14T08:41:42.406Z,3.55
2018-07-14T08:44:10.773Z,3.50
2018-07-14T08:46:39.143Z,3.70
2018-07-14T08:49:07.490Z,3.37
2018-07-14T08:51:35.950Z,3.62
2018-07-14T08:54:04.414Z,3.55
2018-07-14T08:56:32.909Z,3.78
2018-07-14T08:59:01.221Z,3.42
2018-07-14T09:01:30.372Z,3.60
2018-07-14T09:03:58.711Z,3.60
2018-07-14T09:06:28.213Z,4.10
2018-07-14T09:08:56.540Z,3.65
2018-07-14T09:11:24.946Z,3.40
2018-07-14T09:13:53.279Z,4.28
2018-07-14T09:16:21.730Z,4.12
2018-07-14T09:18:50.064Z,4.22
2018-07-14T09:21:18.428Z,4.07
2018-07-14T09:23:46.776Z,9.88
2018-07-14T09:26:15.213Z,7.90
2018-07-14T09:28:43.580Z,4.45
2018-07-14T09:31:11.958Z,4.18
2018-07-14T09:33:40.264Z,3.75
2018-07-14T09:36:08.600Z,4.10
2018-07-14T09:38:36.961Z,5.05
2018-07-14T09:41:06.133Z,4.97
2018-07-14T09:43:34.455Z,4.57
2018-07-14T09:46:02.776Z,4.20
2018-07-14T09:48:31.144Z,4.68
2018-07-14T09:50:59.579Z,5.12
2018-07-14T09:53:27.916Z,6.80
2018-07-14T09:55:56.342Z,5.87
2018-07-14T09:58:24.890Z,5.15
2018-07-14T10:00:53.234Z,4.75
2018-07-14T10:03:21.579Z,4.95
2018-07-14T10:05:50.592Z,4.32
2018-07-14T10:08:18.970Z,4.80
2018-07-14T10:10:47.396Z,4.20
2018-07-14T10:13:15.849Z,4.87
2018-07-14T10:15:44.170Z,5.00
2018-07-14T10:18:12.492Z,4.80
2018-07-14T10:20:40.847Z,4.28
2018-07-14T10:23:09.334Z,4.07
2018-07-14T10:25:37.803Z,4.70
2018-07-14T10:28:06.094Z,5.18
2018-07-14T10:30:34.480Z,5.07
2018-07-14T10:33:03.742Z,5.47
2018-07-14T10:35:32.138Z,5.47
2018-07-14T10:38:00.626Z,4.57
2018-07-14T10:40:29.044Z,5.70
2018-07-14T10:42:57.420Z,6.82
2018-07-14T10:45:26.228Z,6.25
2018-07-14T10:47:54.542Z,4.40
2018-07-14T10:50:22.880Z,4.30
2018-07-14T10:52:51.328Z,4.50
2018-07-14T10:55:19.854Z,5.62
2018-07-14T10:57:48.428Z,5.57
2018-07-14T11:00:16.772Z,6.10
2018-07-14T11:02:45.106Z,5.53
2018-07-14T11:05:13.484Z,4.95
2018-07-14T11:07:41.830Z,5.37
2018-07-14T11:10:10.163Z,4.78
2018-07-14T11:12:38.502Z,4.87
2018-07-14T11:15:06.909Z,4.70
2018-07-14T11:17:35.384Z,7.60
2018-07-14T11:20:04.572Z,4.65
2018-07-14T11:22:32.899Z,5.28
2018-07-14T11:25:01.279Z,4.95
2018-07-14T11:27:29.620Z,6.78
2018-07-14T11:29:58.024Z,6.50
2018-07-14T11:32:26.429Z,5.20
2018-07-14T11:34:54.808Z,4.37
2018-07-14T11:37:23.366Z,4.65
2018-07-14T11:39:51.742Z,5.10
2018-07-14T11:42:20.225Z,4.80
2018-07-14T11:44:48.595Z,5.87
2018-07-14T11:47:17.902Z,4.40
2018-07-14T11:49:46.268Z,4.43
2018-07-14T11:52:14.663Z,4.80
2018-07-14T11:54:43.454Z,4.93
2018-07-14T11:57:12.560Z,4.37
2018-07-14T11:59:40.886Z,4.12
2018-07-14T12:02:10.149Z,4.45
2018-07-14T12:04:38.548Z,5.15
2018-07-14T12:07:06.891Z,7.75
2018-07-14T12:09:35.318Z,6.15
2018-07-14T12:12:03.750Z,5.95
2018-07-14T12:14:32.188Z,6.32
2018-07-14T12:17:00.508Z,5.90
2018-07-14T12:19:28.892Z,5.28
2018-07-14T12:21:57.220Z,4.97
2018-07-14T12:24:25.591Z,5.30
2018-07-14T12:26:53.918Z,5.35
2018-07-14T12:29:22.297Z,5.15
2018-07-14T12:31:50.683Z,4.40
2018-07-14T12:34:19.082Z,5.72
2018-07-14T12:36:47.487Z,5.10
2018-07-14T12:39:15.831Z,4.40
2018-07-14T12:41:44.214Z,5.72
2018-07-14T12:44:12.533Z,6.07
2018-07-14T12:46:40.882Z,5.40
2018-07-14T12:49:09.232Z,4.68
2018-07-14T12:51:37.630Z,4.82
2018-07-14T12:54:06.337Z,5.05
2018-07-14T12:56:34.679Z,4.70
2018-07-14T12:59:03.035Z,5.85
2018-07-14T13:01:32.138Z,5.47
2018-07-14T13:04:00.552Z,6.12
2018-07-14T13:06:28.888Z,5.22
2018-07-14T13:08:57.309Z,5.45
2018-07-14T13:11:25.681Z,4.43
2018-07-14T13:13:54.056Z,5.87
2018-07-14T13:16:22.463Z,4.72
2018-07-14T13:18:50.795Z,6.72
2018-07-14T13:21:20.021Z,6.22
2018-07-14T13:23:48.391Z,4.90
2018-07-14T13:26:16.737Z,5.32
2018-07-14T13:28:45.181Z,7.15
2018-07-14T13:31:13.500Z,5.32
2018-07-14T13:33:41.909Z,7.82
2018-07-14T13:36:10.422Z,5.93
2018-07-14T13:38:38.801Z,7.50
2018-07-14T13:41:07.154Z,7.40
2018-07-14T13:43:35.749Z,6.37
2018-07-14T13:46:04.093Z,6.97
2018-07-14T13:48:33.194Z,6.37
2018-07-14T13:51:02.344Z,7.28
2018-07-14T13:53:30.721Z,7.57
2018-07-14T13:55:59.087Z,7.97
2018-07-14T13:58:27.687Z,8.02
2018-07-14T14:00:56.184Z,8.73
2018-07-14T14:03:24.513Z,8.77
2018-07-14T14:05:52.843Z,7.30
2018-07-14T14:08:21.299Z,6.80
2018-07-14T14:10:49.618Z,7.57
2018-07-14T14:13:18.059Z,7.18
2018-07-14T14:15:46.376Z,7.70
2018-07-14T14:18:15.593Z,7.97
2018-07-14T14:20:44.673Z,8.70
2018-07-14T14:23:13.103Z,7.22
2018-07-14T14:25:41.451Z,9.35
2018-07-14T14:28:10.555Z,7.55
2018-07-14T14:30:38.951Z,9.15
2018-07-14T14:33:07.406Z,8.20
2018-07-14T14:35:36.418Z,8.05
2018-07-14T14:38:04.773Z,7.78
2018-07-14T14:40:33.879Z,7.25
2018-07-14T14:43:02.219Z,7.57
2018-07-14T14:45:30.577Z,6.60
2018-07-14T14:47:59.755Z,7.18
2018-07-14T14:50:28.088Z,6.65
2018-07-14T14:52:56.442Z,7.20
2018-07-14T14:55:24.905Z,6.72
2018-07-14T14:57:53.211Z,6.20
2018-07-14T15:00:21.590Z,8.02
2018-07-14T15:02:49.913Z,5.32
2018-07-14T15:05:18.253Z,6.22
2018-07-14T15:07:46.605Z,5.90
2018-07-14T15:10:14.962Z,5.40
2018-07-14T15:12:43.291Z,6.78
2018-07-14T15:15:11.757Z,6.97
2018-07-14T15:17:40.797Z,5.70
2018-07-14T15:20:09.915Z,6.70
2018-07-14T15:22:38.245Z,7.10
2018-07-14T15:25:06.897Z,6.78
2018-07-14T15:27:35.223Z,6.90
2018-07-14T15:30:03.551Z,6.05
2018-07-14T15:32:31.940Z,5.30
2018-07-14T15:35:00.283Z,5.87
2018-07-14T15:37:28.671Z,6.37
2018-07-14T15:39:57.032Z,5.07
2018-07-14T15:42:26.139Z,5.62
2018-07-14T15:44:54.488Z,5.20
2018-07-14T15:47:22.990Z,5.62
2018-07-14T15:49:52.113Z,5.30
2018-07-14T15:52:20.507Z,4.37
2018-07-14T15:54:48.825Z,5.20
2018-07-14T15:57:17.163Z,5.37
2018-07-14T15:59:45.514Z,4.35
2018-07-14T16:02:13.918Z,3.72
2018-07-14T16:04:42.280Z,4.12
2018-07-14T16:07:10.601Z,4.10
2018-07-14T16:09:39.034Z,3.78
2018-07-14T16:12:07.356Z,3.85
2018-07-14T16:14:35.821Z,3.80
2018-07-14T16:17:04.151Z,3.28
2018-07-14T16:19:32.492Z,3.12
2018-07-14T16:22:00.831Z,3.30
2018-07-14T16:24:29.181Z,2.60
2018-07-14T16:26:58.299Z,2.97
2018-07-14T16:29:26.697Z,3.00
2018-07-14T16:31:55.065Z,2.80
2018-07-14T16:34:23.567Z,2.70
2018-07-14T16:36:51.859Z,3.22
2018-07-14T16:39:20.210Z,2.62
2018-07-14T16:41:48.548Z,2.35
2018-07-14T16:44:16.970Z,2.95
2018-07-14T16:46:45.336Z,2.30
2018-07-14T16:49:13.682Z,2.53
2018-07-14T16:51:41.996Z,2.70
2018-07-14T16:54:10.390Z,2.10
2018-07-14T16:56:38.764Z,2.20
2018-07-14T16:59:07.108Z,1.90
2018-07-14T17:01:36.256Z,1.98
2018-07-14T17:04:05.154Z,1.92
2018-07-14T17:06:33.622Z,2.12
2018-07-14T17:09:02.070Z,1.85
2018-07-14T17:11:30.471Z,1.90
2018-07-14T17:13:58.880Z,1.67
2018-07-14T17:16:27.229Z,1.58
2018-07-14T17:18:55.555Z,1.70
2018-07-14T17:21:23.992Z,1.50
2018-07-14T17:23:52.358Z,1.67
2018-07-14T17:26:20.710Z,1.60
2018-07-14T17:28:49.839Z,1.58
2018-07-14T17:31:18.213Z,1.60
2018-07-14T17:33:46.540Z,1.65
2018-07-14T17:36:14.899Z,1.60
2018-07-14T17:38:43.248Z,1.92
2018-07-14T17:41:11.781Z,2.08
2018-07-14T17:43:40.213Z,1.75
2018-07-14T17:46:08.538Z,1.90
2018-07-14T17:48:36.884Z,1.87
2018-07-14T17:51:05.242Z,1.50
2018-07-14T17:53:33.613Z,1.90
2018-07-14T17:56:02.695Z,1.70
2018-07-14T17:58:31.032Z,1.77
2018-07-14T18:00:59.385Z,1.60
2018-07-14T18:03:27.733Z,2.05
2018-07-14T18:05:56.846Z,1.67
2018-07-14T18:08:25.176Z,1.55
2018-07-14T18:10:53.608Z,1.50
2018-07-14T18:13:22.056Z,1.50
2018-07-14T18:15:50.383Z,1.40
2018-07-14T18:18:18.759Z,1.58
2018-07-14T18:20:47.214Z,1.65
2018-07-14T18:23:15.612Z,1.60
2018-07-14T18:25:43.957Z,1.58
2018-07-14T18:28:12.295Z,1.62
2018-07-14T18:30:40.648Z,1.60
2018-07-14T18:33:09.041Z,2.97
2018-07-14T18:35:37.479Z,3.97
2018-07-14T18:38:07.808Z,1.60
2018-07-14T18:40:36.924Z,1.55
2018-07-14T18:43:05.368Z,1.40
2018-07-14T18:45:33.790Z,1.55
2018-07-14T18:48:02.160Z,1.30
2018-07-14T18:50:31.646Z,1.50
2018-07-14T18:52:59.951Z,1.20
2018-07-14T18:55:28.522Z,1.60
2018-07-14T18:57:56.904Z,1.77
2018-07-14T19:00:25.286Z,1.50
2018-07-14T19:02:53.969Z,1.85
2018-07-14T19:05:24.254Z,1.60
2018-07-14T19:07:53.098Z,1.58
2018-07-14T19:10:21.559Z,1.50
2018-07-14T19:12:49.911Z,2.50
2018-07-14T19:15:18.266Z,1.85
2018-07-14T19:17:46.578Z,1.90
2018-07-14T19:20:15.824Z,1.87
2018-07-14T19:22:44.212Z,1.92
2018-07-14T19:25:12.687Z,1.45
2018-07-14T19:27:41.168Z,1.62
2018-07-14T19:30:09.838Z,1.52
2018-07-14T19:32:38.176Z,1.60
2018-07-14T19:35:06.622Z,1.50
2018-07-14T19:37:35.254Z,1.48
2018-07-14T19:40:03.910Z,1.60
2018-07-14T19:42:32.513Z,1.52
2018-07-14T19:45:00.866Z,1.80
2018-07-14T19:47:29.233Z,1.83
2018-07-14T19:49:57.608Z,1.80
2018-07-14T19:52:26.525Z,1.85
2018-07-14T19:54:55.245Z,1.70
2018-07-14T19:57:23.885Z,2.03
2018-07-14T19:59:52.435Z,1.90
2018-07-14T20:02:22.656Z,1.60
2018-07-14T20:04:51.404Z,1.40
2018-07-14T20:07:19.846Z,1.85
2018-07-14T20:09:48.584Z,1.80
2018-07-14T20:12:17.427Z,1.60
2018-07-14T20:14:46.337Z,1.65
2018-07-14T20:17:15.352Z,1.53
2018-07-14T20:19:43.797Z,1.70
2018-07-14T20:22:12.148Z,1.80
2018-07-14T20:24:42.126Z,1.77
2018-07-14T20:27:11.100Z,1.60
2018-07-14T20:29:39.525Z,1.70
2018-07-14T20:32:08.643Z,1.60
2018-07-14T20:34:37.899Z,1.65
2018-07-14T20:37:06.650Z,1.90
2018-07-14T20:39:35.596Z,2.57
2018-07-14T20:42:04.599Z,2.70
2018-07-14T20:44:32.985Z,1.67
2018-07-14T20:47:03.009Z,1.60
2018-07-14T20:49:31.357Z,1.60
2018-07-14T20:52:00.268Z,1.60
2018-07-14T20:54:30.621Z,1.77
2018-07-14T20:56:59.086Z,1.70
2018-07-14T20:59:27.518Z,1.97
2018-07-14T21:01:56.280Z,1.87
2018-07-14T21:04:24.778Z,2.00
2018-07-14T21:06:53.189Z,2.10
2018-07-14T21:09:21.680Z,1.80
2018-07-14T21:11:50.976Z,1.93
2018-07-14T21:14:19.314Z,1.93
2018-07-14T21:16:48.508Z,1.87
2018-07-14T21:19:16.888Z,1.90
2018-07-14T21:21:46.805Z,1.83
2018-07-14T21:24:15.162Z,1.77
2018-07-14T21:26:44.833Z,1.90
2018-07-14T21:29:14.658Z,2.00
2018-07-14T21:31:43.528Z,1.80
2018-07-14T21:34:13.031Z,2.03
2018-07-14T21:36:41.526Z,2.00
2018-07-14T21:39:10.041Z,2.00
2018-07-14T21:41:38.443Z,2.10
2018-07-14T21:44:06.818Z,2.07
2018-07-14T21:46:35.184Z,2.00
2018-07-14T21:49:04.613Z,2.33
2018-07-14T21:51:33.106Z,1.70
2018-07-14T21:54:01.508Z,1.63
2018-07-14T21:56:30.718Z,1.80
2018-07-14T21:59:00.436Z,1.80
2018-07-14T22:01:29.731Z,2.00
2018-07-14T22:03:58.986Z,1.83
2018-07-14T22:06:28.208Z,1.70
2018-07-14T22:08:56.546Z,1.73
2018-07-14T22:11:24.950Z,1.90
2018-07-14T22:13:53.301Z,1.97
2018-07-14T22:16:21.618Z,1.90
2018-07-14T22:18:50.024Z,2.10
2018-07-14T22:21:19.142Z,2.30
2018-07-14T22:23:48.254Z,2.43
2018-07-14T22:26:16.596Z,2.30
2018-07-14T22:28:45.786Z,2.47
2018-07-14T22:31:14.215Z,2.30
2018-07-14T22:33:42.589Z,2.57
2018-07-14T22:36:10.924Z,1.97
2018-07-14T22:38:39.357Z,2.10
2018-07-14T22:41:07.697Z,1.87
2018-07-14T22:43:36.930Z,2.10
2018-07-14T22:46:05.252Z,1.93
2018-07-14T22:48:33.605Z,2.23
2018-07-14T22:51:02.560Z,2.13
2018-07-14T22:53:32.604Z,2.17
2018-07-14T22:56:00.928Z,2.57
2018-07-14T22:58:29.305Z,2.00
2018-07-14T23:00:57.717Z,2.57
2018-07-14T23:03:26.136Z,2.43
2018-07-14T23:05:54.611Z,2.20
2018-07-14T23:08:22.904Z,2.30
2018-07-14T23:10:52.430Z,2.63
2018-07-14T23:13:20.780Z,2.23
2018-07-14T23:15:49.131Z,2.50
2018-07-14T23:18:17.480Z,2.30
2018-07-14T23:20:46.620Z,2.00
2018-07-14T23:23:15.169Z,2.27
2018-07-14T23:25:44.364Z,2.23
2018-07-14T23:28:13.463Z,2.30
2018-07-14T23:30:42.575Z,2.27
2018-07-14T23:33:11.607Z,2.27
2018-07-14T23:35:39.932Z,2.30
2018-07-14T23:38:09.150Z,2.40
2018-07-14T23:40:37.459Z,2.40
2018-07-14T23:43:05.792Z,2.20
2018-07-14T23:45:34.900Z,2.40
2018-07-14T23:48:03.335Z,2.47
2018-07-14T23:50:31.684Z,2.43
2018-07-14T23:53:00.238Z,18.20
2018-07-14T23:55:28.622Z,22.13
2018-07-14T23:57:57.002Z,5.20
